sensor_id;sensor_type;location;lat;lon;timestamp;temperature;humidity
13944;DHT22;7044;53.286;8.534;2023-10-31T00:01:30;12.40;99.90
13944;DHT22;7044;53.286;8.534;2023-10-31T00:03:56;12.30;99.90
13944;DHT22;7044;53.286;8.534;2023-10-31T00:06:25;12.30;99.90
13944;DHT22;7044;53.286;8.534;2023-10-31T00:08:52;12.00;99.90
13944;DHT22;7044;53.286;8.534;2023-10-31T00:11:18;12.30;99.90
13944;DHT22;7044;53.286;8.534;2023-10-31T00:13:46;12.40;99.90
13944;DHT22;7044;53.286;8.534;2023-10-31T00:16:13;12.40;99.90
13944;DHT22;7044;53.286;8.534;2023-10-31T00:18:40;12.30;99.90
13944;DHT22;7044;53.286;8.534;2023-10-31T00:21:06;12.40;99.90
13944;DHT22;7044;53.286;8.534;2023-10-31T00:23:42;12.30;99.90
13944;DHT22;7044;53.286;8.534;2023-10-31T00:26:09;11.90;99.90
13944;DHT22;7044;53.286;8.534;2023-10-31T00:28:36;12.20;99.90
13944;DHT22;7044;53.286;8.534;2023-10-31T00:31:03;12.40;99.90
13944;DHT22;7044;53.286;8.534;2023-10-31T00:33:30;12.30;99.90
13944;DHT22;7044;53.286;8.534;2023-10-31T00:35:57;12.30;99.90
13944;DHT22;7044;53.286;8.534;2023-10-31T00:38:24;12.30;99.90
13944;DHT22;7044;53.286;8.534;2023-10-31T00:40:52;12.40;99.90
13944;DHT22;7044;53.286;8.534;2023-10-31T00:43:19;12.40;99.90
13944;DHT22;7044;53.286;8.534;2023-10-31T00:45:46;12.30;99.90
13944;DHT22;7044;53.286;8.534;2023-10-31T00:48:12;12.30;99.90
13944;DHT22;7044;53.286;8.534;2023-10-31T00:50:39;12.00;99.90
13944;DHT22;7044;53.286;8.534;2023-10-31T00:53:07;12.40;99.90
13944;DHT22;7044;53.286;8.534;2023-10-31T00:55:34;12.10;99.90
13944;DHT22;7044;53.286;8.534;2023-10-31T00:58:04;12.50;99.90
13944;DHT22;7044;53.286;8.534;2023-10-31T01:00:31;12.30;99.90
13944;DHT22;7044;53.286;8.534;2023-10-31T01:02:59;12.40;99.90
13944;DHT22;7044;53.286;8.534;2023-10-31T01:05:26;12.50;99.90
13944;DHT22;7044;53.286;8.534;2023-10-31T01:10:21;12.50;99.90
13944;DHT22;7044;53.286;8.534;2023-10-31T01:12:48;12.40;99.90
13944;DHT22;7044;53.286;8.534;2023-10-31T01:15:16;12.40;99.90
13944;DHT22;7044;53.286;8.534;2023-10-31T01:17:43;12.90;99.90
13944;DHT22;7044;53.286;8.534;2023-10-31T01:20:10;12.50;99.90
13944;DHT22;7044;53.286;8.534;2023-10-31T01:22:37;12.30;99.90
13944;DHT22;7044;53.286;8.534;2023-10-31T01:25:05;12.40;99.90
13944;DHT22;7044;53.286;8.534;2023-10-31T01:27:31;12.40;99.90
13944;DHT22;7044;53.286;8.534;2023-10-31T01:29:58;12.30;99.90
13944;DHT22;7044;53.286;8.534;2023-10-31T01:32:26;12.40;99.90
13944;DHT22;7044;53.286;8.534;2023-10-31T01:34:53;12.50;99.90
13944;DHT22;7044;53.286;8.534;2023-10-31T01:37:20;12.40;99.90
13944;DHT22;7044;53.286;8.534;2023-10-31T01:39:47;12.40;99.90
13944;DHT22;7044;53.286;8.534;2023-10-31T01:42:14;12.40;99.90
13944;DHT22;7044;53.286;8.534;2023-10-31T01:44:41;12.10;99.90
13944;DHT22;7044;53.286;8.534;2023-10-31T01:47:08;12.50;99.90
13944;DHT22;7044;53.286;8.534;2023-10-31T01:49:37;12.50;99.90
13944;DHT22;7044;53.286;8.534;2023-10-31T01:52:05;12.40;99.90
13944;DHT22;7044;53.286;8.534;2023-10-31T01:54:33;12.40;99.90
13944;DHT22;7044;53.286;8.534;2023-10-31T01:57:00;12.40;99.90
13944;DHT22;7044;53.286;8.534;2023-10-31T01:59:28;12.30;99.90
13944;DHT22;7044;53.286;8.534;2023-10-31T02:01:55;12.40;99.90
13944;DHT22;7044;53.286;8.534;2023-10-31T02:04:23;12.50;99.90
13944;DHT22;7044;53.286;8.534;2023-10-31T02:06:51;12.40;99.90
13944;DHT22;7044;53.286;8.534;2023-10-31T02:09:19;12.50;99.90
13944;DHT22;7044;53.286;8.534;2023-10-31T02:11:49;12.40;99.90
13944;DHT22;7044;53.286;8.534;2023-10-31T02:14:16;12.40;99.90
13944;DHT22;7044;53.286;8.534;2023-10-31T02:16:42;12.40;99.90
13944;DHT22;7044;53.286;8.534;2023-10-31T02:19:10;11.70;99.90
13944;DHT22;7044;53.286;8.534;2023-10-31T02:21:40;12.30;99.90
13944;DHT22;7044;53.286;8.534;2023-10-31T02:24:07;12.40;99.90
13944;DHT22;7044;53.286;8.534;2023-10-31T02:26:35;12.40;99.90
13944;DHT22;7044;53.286;8.534;2023-10-31T02:29:02;12.40;99.90
13944;DHT22;7044;53.286;8.534;2023-10-31T02:31:29;12.40;99.90
13944;DHT22;7044;53.286;8.534;2023-10-31T02:33:56;12.50;99.90
13944;DHT22;7044;53.286;8.534;2023-10-31T02:36:23;12.50;99.90
13944;DHT22;7044;53.286;8.534;2023-10-31T02:38:51;12.40;99.90
13944;DHT22;7044;53.286;8.534;2023-10-31T02:41:18;12.30;99.90
13944;DHT22;7044;53.286;8.534;2023-10-31T02:43:44;12.40;99.90
13944;DHT22;7044;53.286;8.534;2023-10-31T02:48:40;12.40;99.90
13944;DHT22;7044;53.286;8.534;2023-10-31T02:51:07;12.30;99.90
13944;DHT22;7044;53.286;8.534;2023-10-31T02:53:34;12.40;99.90
13944;DHT22;7044;53.286;8.534;2023-10-31T02:56:03;12.40;99.90
13944;DHT22;7044;53.286;8.534;2023-10-31T03:00:57;12.40;99.90
13944;DHT22;7044;53.286;8.534;2023-10-31T03:03:24;12.50;99.90
13944;DHT22;7044;53.286;8.534;2023-10-31T03:05:51;12.00;99.90
13944;DHT22;7044;53.286;8.534;2023-10-31T03:08:17;12.30;99.90
13944;DHT22;7044;53.286;8.534;2023-10-31T03:10:47;12.30;99.90
13944;DHT22;7044;53.286;8.534;2023-10-31T03:13:17;12.30;99.90
13944;DHT22;7044;53.286;8.534;2023-10-31T03:15:46;12.40;99.90
13944;DHT22;7044;53.286;8.534;2023-10-31T03:18:12;12.40;99.90
13944;DHT22;7044;53.286;8.534;2023-10-31T03:20:43;12.40;99.90
13944;DHT22;7044;53.286;8.534;2023-10-31T03:23:10;12.40;99.90
13944;DHT22;7044;53.286;8.534;2023-10-31T03:25:36;12.40;99.90
13944;DHT22;7044;53.286;8.534;2023-10-31T03:28:03;12.40;99.90
13944;DHT22;7044;53.286;8.534;2023-10-31T03:30:31;12.40;99.90
13944;DHT22;7044;53.286;8.534;2023-10-31T03:32:57;12.40;99.90
13944;DHT22;7044;53.286;8.534;2023-10-31T03:35:25;12.50;99.90
13944;DHT22;7044;53.286;8.534;2023-10-31T03:37:51;12.20;99.90
13944;DHT22;7044;53.286;8.534;2023-10-31T03:40:18;12.50;99.90
13944;DHT22;7044;53.286;8.534;2023-10-31T03:42:45;12.40;99.90
13944;DHT22;7044;53.286;8.534;2023-10-31T03:45:12;12.40;99.90
13944;DHT22;7044;53.286;8.534;2023-10-31T03:47:40;12.20;99.90
13944;DHT22;7044;53.286;8.534;2023-10-31T03:50:09;10.50;99.90
13944;DHT22;7044;53.286;8.534;2023-10-31T03:52:36;12.80;99.90
13944;DHT22;7044;53.286;8.534;2023-10-31T03:55:03;12.50;99.90
13944;DHT22;7044;53.286;8.534;2023-10-31T03:57:30;12.50;99.90
13944;DHT22;7044;53.286;8.534;2023-10-31T03:59:57;12.50;99.90
13944;DHT22;7044;53.286;8.534;2023-10-31T04:02:23;12.50;99.90
13944;DHT22;7044;53.286;8.534;2023-10-31T04:04:52;12.50;99.90
13944;DHT22;7044;53.286;8.534;2023-10-31T04:07:18;12.50;99.90
13944;DHT22;7044;53.286;8.534;2023-10-31T04:09:45;12.50;99.90
13944;DHT22;7044;53.286;8.534;2023-10-31T04:12:12;12.50;99.90
13944;DHT22;7044;53.286;8.534;2023-10-31T04:14:39;12.40;99.90
13944;DHT22;7044;53.286;8.534;2023-10-31T04:17:06;12.50;99.90
13944;DHT22;7044;53.286;8.534;2023-10-31T04:19:32;12.50;99.90
13944;DHT22;7044;53.286;8.534;2023-10-31T04:22:00;12.50;99.90
13944;DHT22;7044;53.286;8.534;2023-10-31T04:24:27;12.60;99.90
13944;DHT22;7044;53.286;8.534;2023-10-31T04:26:54;12.50;99.90
13944;DHT22;7044;53.286;8.534;2023-10-31T04:29:21;12.90;99.90
13944;DHT22;7044;53.286;8.534;2023-10-31T04:31:48;12.40;99.90
13944;DHT22;7044;53.286;8.534;2023-10-31T04:34:14;12.50;99.90
13944;DHT22;7044;53.286;8.534;2023-10-31T04:36:41;12.40;99.90
13944;DHT22;7044;53.286;8.534;2023-10-31T04:39:10;12.40;99.90
13944;DHT22;7044;53.286;8.534;2023-10-31T04:41:36;12.50;99.90
13944;DHT22;7044;53.286;8.534;2023-10-31T04:44:04;12.40;99.90
13944;DHT22;7044;53.286;8.534;2023-10-31T04:46:30;12.40;99.90
13944;DHT22;7044;53.286;8.534;2023-10-31T04:48:57;12.50;99.90
13944;DHT22;7044;53.286;8.534;2023-10-31T04:53:51;12.40;99.90
13944;DHT22;7044;53.286;8.534;2023-10-31T04:56:20;12.50;99.90
13944;DHT22;7044;53.286;8.534;2023-10-31T04:58:46;12.40;99.90
13944;DHT22;7044;53.286;8.534;2023-10-31T05:01:14;12.30;99.90
13944;DHT22;7044;53.286;8.534;2023-10-31T05:03:40;12.50;99.90
13944;DHT22;7044;53.286;8.534;2023-10-31T05:06:07;12.40;99.90
13944;DHT22;7044;53.286;8.534;2023-10-31T05:08:34;12.50;99.90
13944;DHT22;7044;53.286;8.534;2023-10-31T05:11:01;12.70;99.90
13944;DHT22;7044;53.286;8.534;2023-10-31T05:13:29;12.40;99.90
13944;DHT22;7044;53.286;8.534;2023-10-31T05:15:56;12.40;99.90
13944;DHT22;7044;53.286;8.534;2023-10-31T05:18:22;12.60;99.90
13944;DHT22;7044;53.286;8.534;2023-10-31T05:20:49;12.50;99.90
13944;DHT22;7044;53.286;8.534;2023-10-31T05:23:16;12.40;99.90
13944;DHT22;7044;53.286;8.534;2023-10-31T05:25:43;12.50;99.90
13944;DHT22;7044;53.286;8.534;2023-10-31T05:28:10;12.50;99.90
13944;DHT22;7044;53.286;8.534;2023-10-31T05:30:38;12.50;99.90
13944;DHT22;7044;53.286;8.534;2023-10-31T05:33:05;12.40;99.90
13944;DHT22;7044;53.286;8.534;2023-10-31T05:35:32;12.40;99.90
13944;DHT22;7044;53.286;8.534;2023-10-31T05:37:59;12.40;99.90
13944;DHT22;7044;53.286;8.534;2023-10-31T05:40:26;12.50;99.90
13944;DHT22;7044;53.286;8.534;2023-10-31T05:42:54;12.50;99.90
13944;DHT22;7044;53.286;8.534;2023-10-31T05:45:22;12.60;99.90
13944;DHT22;7044;53.286;8.534;2023-10-31T05:47:50;12.50;99.90
13944;DHT22;7044;53.286;8.534;2023-10-31T05:50:17;12.60;99.90
13944;DHT22;7044;53.286;8.534;2023-10-31T05:52:44;12.10;99.90
13944;DHT22;7044;53.286;8.534;2023-10-31T05:55:11;11.80;99.90
13944;DHT22;7044;53.286;8.534;2023-10-31T05:57:38;11.60;99.90
13944;DHT22;7044;53.286;8.534;2023-10-31T06:00:06;11.60;99.90
13944;DHT22;7044;53.286;8.534;2023-10-31T06:02:33;11.30;99.90
13944;DHT22;7044;53.286;8.534;2023-10-31T06:05:01;11.40;99.90
13944;DHT22;7044;53.286;8.534;2023-10-31T06:07:28;11.20;99.90
13944;DHT22;7044;53.286;8.534;2023-10-31T06:09:55;11.20;99.90
13944;DHT22;7044;53.286;8.534;2023-10-31T06:12:22;11.20;99.90
13944;DHT22;7044;53.286;8.534;2023-10-31T06:14:49;11.20;99.90
13944;DHT22;7044;53.286;8.534;2023-10-31T06:17:16;11.10;99.90
13944;DHT22;7044;53.286;8.534;2023-10-31T06:19:43;10.90;99.90
13944;DHT22;7044;53.286;8.534;2023-10-31T06:22:12;10.90;99.90
13944;DHT22;7044;53.286;8.534;2023-10-31T06:24:39;11.00;99.90
13944;DHT22;7044;53.286;8.534;2023-10-31T06:27:06;10.90;99.90
13944;DHT22;7044;53.286;8.534;2023-10-31T06:29:33;10.90;99.90
13944;DHT22;7044;53.286;8.534;2023-10-31T06:34:27;10.90;99.90
13944;DHT22;7044;53.286;8.534;2023-10-31T06:36:54;11.00;99.90
13944;DHT22;7044;53.286;8.534;2023-10-31T06:39:22;10.90;99.90
13944;DHT22;7044;53.286;8.534;2023-10-31T06:41:49;10.70;99.90
13944;DHT22;7044;53.286;8.534;2023-10-31T06:44:16;10.90;99.90
13944;DHT22;7044;53.286;8.534;2023-10-31T06:46:43;10.80;99.90
13944;DHT22;7044;53.286;8.534;2023-10-31T06:49:09;10.80;99.90
13944;DHT22;7044;53.286;8.534;2023-10-31T06:51:36;10.90;99.90
13944;DHT22;7044;53.286;8.534;2023-10-31T06:54:04;10.90;99.90
13944;DHT22;7044;53.286;8.534;2023-10-31T06:56:32;10.80;99.90
13944;DHT22;7044;53.286;8.534;2023-10-31T06:58:59;10.80;99.90
13944;DHT22;7044;53.286;8.534;2023-10-31T07:01:25;10.70;99.90
13944;DHT22;7044;53.286;8.534;2023-10-31T07:03:52;10.80;99.90
13944;DHT22;7044;53.286;8.534;2023-10-31T07:06:19;10.70;99.90
13944;DHT22;7044;53.286;8.534;2023-10-31T07:08:46;10.80;99.90
13944;DHT22;7044;53.286;8.534;2023-10-31T07:11:13;10.70;99.90
13944;DHT22;7044;53.286;8.534;2023-10-31T07:13:41;10.70;99.90
13944;DHT22;7044;53.286;8.534;2023-10-31T07:16:09;10.70;99.90
13944;DHT22;7044;53.286;8.534;2023-10-31T07:18:36;10.80;99.90
13944;DHT22;7044;53.286;8.534;2023-10-31T07:21:04;10.80;99.90
13944;DHT22;7044;53.286;8.534;2023-10-31T07:23:31;10.70;99.90
13944;DHT22;7044;53.286;8.534;2023-10-31T07:25:57;10.60;99.90
13944;DHT22;7044;53.286;8.534;2023-10-31T07:28:24;10.60;99.90
13944;DHT22;7044;53.286;8.534;2023-10-31T07:30:52;10.60;99.90
13944;DHT22;7044;53.286;8.534;2023-10-31T07:33:19;10.60;99.90
13944;DHT22;7044;53.286;8.534;2023-10-31T07:35:46;10.90;99.90
13944;DHT22;7044;53.286;8.534;2023-10-31T07:38:12;10.60;99.90
13944;DHT22;7044;53.286;8.534;2023-10-31T07:40:40;10.50;99.90
13944;DHT22;7044;53.286;8.534;2023-10-31T07:43:07;10.50;99.90
13944;DHT22;7044;53.286;8.534;2023-10-31T07:45:34;10.50;99.90
13944;DHT22;7044;53.286;8.534;2023-10-31T07:48:02;10.50;99.90
13944;DHT22;7044;53.286;8.534;2023-10-31T07:50:29;11.10;99.90
13944;DHT22;7044;53.286;8.534;2023-10-31T07:52:56;10.50;99.90
13944;DHT22;7044;53.286;8.534;2023-10-31T07:55:22;10.10;99.90
13944;DHT22;7044;53.286;8.534;2023-10-31T07:57:50;10.50;99.90
13944;DHT22;7044;53.286;8.534;2023-10-31T08:00:17;10.50;99.90
13944;DHT22;7044;53.286;8.534;2023-10-31T08:02:43;10.60;99.90
13944;DHT22;7044;53.286;8.534;2023-10-31T08:05:11;10.50;99.90
13944;DHT22;7044;53.286;8.534;2023-10-31T08:07:38;10.50;99.90
13944;DHT22;7044;53.286;8.534;2023-10-31T08:10:06;10.50;99.90
13944;DHT22;7044;53.286;8.534;2023-10-31T08:15:00;10.80;99.90
13944;DHT22;7044;53.286;8.534;2023-10-31T08:17:27;10.80;99.90
13944;DHT22;7044;53.286;8.534;2023-10-31T08:19:54;10.60;99.90
13944;DHT22;7044;53.286;8.534;2023-10-31T08:22:22;10.60;99.90
13944;DHT22;7044;53.286;8.534;2023-10-31T08:24:49;10.60;99.90
13944;DHT22;7044;53.286;8.534;2023-10-31T08:27:16;10.60;99.90
13944;DHT22;7044;53.286;8.534;2023-10-31T08:29:42;10.60;99.90
13944;DHT22;7044;53.286;8.534;2023-10-31T08:32:09;10.60;99.90
13944;DHT22;7044;53.286;8.534;2023-10-31T08:34:36;10.70;99.90
13944;DHT22;7044;53.286;8.534;2023-10-31T08:37:03;10.70;99.90
13944;DHT22;7044;53.286;8.534;2023-10-31T08:39:31;10.70;99.90
13944;DHT22;7044;53.286;8.534;2023-10-31T08:41:58;10.80;99.90
13944;DHT22;7044;53.286;8.534;2023-10-31T08:44:25;10.80;99.90
13944;DHT22;7044;53.286;8.534;2023-10-31T08:46:52;10.80;99.90
13944;DHT22;7044;53.286;8.534;2023-10-31T08:49:19;10.70;99.90
13944;DHT22;7044;53.286;8.534;2023-10-31T08:51:45;10.70;99.90
13944;DHT22;7044;53.286;8.534;2023-10-31T08:54:12;10.80;99.90
13944;DHT22;7044;53.286;8.534;2023-10-31T08:56:40;10.80;99.90
13944;DHT22;7044;53.286;8.534;2023-10-31T08:59:07;10.70;99.90
13944;DHT22;7044;53.286;8.534;2023-10-31T09:01:34;10.80;99.90
13944;DHT22;7044;53.286;8.534;2023-10-31T09:04:00;10.70;99.90
13944;DHT22;7044;53.286;8.534;2023-10-31T09:06:27;10.70;99.90
13944;DHT22;7044;53.286;8.534;2023-10-31T09:08:54;10.90;99.90
13944;DHT22;7044;53.286;8.534;2023-10-31T09:11:21;10.80;99.90
13944;DHT22;7044;53.286;8.534;2023-10-31T09:13:49;10.80;99.90
13944;DHT22;7044;53.286;8.534;2023-10-31T09:16:16;10.80;99.90
13944;DHT22;7044;53.286;8.534;2023-10-31T09:18:42;10.90;99.90
13944;DHT22;7044;53.286;8.534;2023-10-31T09:21:10;10.70;99.90
13944;DHT22;7044;53.286;8.534;2023-10-31T09:23:37;10.70;99.90
13944;DHT22;7044;53.286;8.534;2023-10-31T09:26:04;10.70;99.90
13944;DHT22;7044;53.286;8.534;2023-10-31T09:28:31;11.30;99.90
13944;DHT22;7044;53.286;8.534;2023-10-31T09:30:59;11.60;99.90
13944;DHT22;7044;53.286;8.534;2023-10-31T09:33:27;9.70;99.90
13944;DHT22;7044;53.286;8.534;2023-10-31T09:35:54;10.80;99.90
13944;DHT22;7044;53.286;8.534;2023-10-31T09:38:20;10.80;99.90
13944;DHT22;7044;53.286;8.534;2023-10-31T09:40:47;10.90;99.90
13944;DHT22;7044;53.286;8.534;2023-10-31T09:43:15;10.80;99.90
13944;DHT22;7044;53.286;8.534;2023-10-31T09:45:42;10.20;99.90
13944;DHT22;7044;53.286;8.534;2023-10-31T09:48:12;11.10;99.90
13944;DHT22;7044;53.286;8.534;2023-10-31T09:53:07;11.20;99.90
13944;DHT22;7044;53.286;8.534;2023-10-31T09:55:35;11.10;99.90
13944;DHT22;7044;53.286;8.534;2023-10-31T09:58:02;11.20;99.90
13944;DHT22;7044;53.286;8.534;2023-10-31T10:00:29;11.30;99.90
13944;DHT22;7044;53.286;8.534;2023-10-31T10:02:56;11.40;99.90
13944;DHT22;7044;53.286;8.534;2023-10-31T10:05:25;11.00;99.90
13944;DHT22;7044;53.286;8.534;2023-10-31T10:07:55;11.30;99.90
13944;DHT22;7044;53.286;8.534;2023-10-31T10:10:22;11.30;99.90
13944;DHT22;7044;53.286;8.534;2023-10-31T10:12:51;11.30;99.90
13944;DHT22;7044;53.286;8.534;2023-10-31T10:15:18;14.20;99.90
13944;DHT22;7044;53.286;8.534;2023-10-31T10:17:49;11.40;99.90
13944;DHT22;7044;53.286;8.534;2023-10-31T10:20:16;11.30;99.90
13944;DHT22;7044;53.286;8.534;2023-10-31T10:22:45;11.30;99.90
13944;DHT22;7044;53.286;8.534;2023-10-31T10:25:13;11.40;99.90
13944;DHT22;7044;53.286;8.534;2023-10-31T10:27:41;11.50;99.90
13944;DHT22;7044;53.286;8.534;2023-10-31T10:30:09;11.50;99.90
13944;DHT22;7044;53.286;8.534;2023-10-31T10:32:36;11.50;99.90
13944;DHT22;7044;53.286;8.534;2023-10-31T10:35:03;11.40;99.90
13944;DHT22;7044;53.286;8.534;2023-10-31T10:37:31;11.60;99.90
13944;DHT22;7044;53.286;8.534;2023-10-31T10:40:00;11.50;99.90
13944;DHT22;7044;53.286;8.534;2023-10-31T10:42:32;11.40;99.90
13944;DHT22;7044;53.286;8.534;2023-10-31T10:45:03;11.50;99.90
13944;DHT22;7044;53.286;8.534;2023-10-31T10:47:31;11.60;99.90
13944;DHT22;7044;53.286;8.534;2023-10-31T10:50:00;11.70;99.90
13944;DHT22;7044;53.286;8.534;2023-10-31T10:52:30;11.70;99.90
13944;DHT22;7044;53.286;8.534;2023-10-31T10:55:04;11.70;99.90
13944;DHT22;7044;53.286;8.534;2023-10-31T10:57:42;12.40;99.90
13944;DHT22;7044;53.286;8.534;2023-10-31T11:00:14;11.80;99.90
13944;DHT22;7044;53.286;8.534;2023-10-31T11:02:43;11.80;99.90
13944;DHT22;7044;53.286;8.534;2023-10-31T11:05:10;11.80;99.90
13944;DHT22;7044;53.286;8.534;2023-10-31T11:07:41;12.10;99.90
13944;DHT22;7044;53.286;8.534;2023-10-31T11:10:10;12.30;99.90
13944;DHT22;7044;53.286;8.534;2023-10-31T11:12:37;12.20;99.90
13944;DHT22;7044;53.286;8.534;2023-10-31T11:15:06;12.30;99.90
13944;DHT22;7044;53.286;8.534;2023-10-31T11:17:35;12.20;99.90
13944;DHT22;7044;53.286;8.534;2023-10-31T11:20:04;12.10;99.90
13944;DHT22;7044;53.286;8.534;2023-10-31T11:22:40;11.80;99.90
13944;DHT22;7044;53.286;8.534;2023-10-31T11:25:07;12.00;99.90
13944;DHT22;7044;53.286;8.534;2023-10-31T11:27:36;11.90;99.90
13944;DHT22;7044;53.286;8.534;2023-10-31T11:30:06;12.00;99.90
13944;DHT22;7044;53.286;8.534;2023-10-31T11:32:33;11.90;99.90
13944;DHT22;7044;53.286;8.534;2023-10-31T11:35:01;12.10;99.90
13944;DHT22;7044;53.286;8.534;2023-10-31T11:37:32;12.00;99.90
13944;DHT22;7044;53.286;8.534;2023-10-31T11:40:19;12.00;99.90
13944;DHT22;7044;53.286;8.534;2023-10-31T11:42:49;12.00;99.90
13944;DHT22;7044;53.286;8.534;2023-10-31T11:45:33;12.00;99.90
13944;DHT22;7044;53.286;8.534;2023-10-31T11:48:00;12.10;99.90
13944;DHT22;7044;53.286;8.534;2023-10-31T11:50:27;12.00;99.90
13944;DHT22;7044;53.286;8.534;2023-10-31T11:53:04;11.90;99.90
13944;DHT22;7044;53.286;8.534;2023-10-31T11:55:33;11.90;99.90
13944;DHT22;7044;53.286;8.534;2023-10-31T11:58:16;11.80;99.90
13944;DHT22;7044;53.286;8.534;2023-10-31T12:00:44;11.90;99.90
13944;DHT22;7044;53.286;8.534;2023-10-31T12:03:11;11.40;99.90
13944;DHT22;7044;53.286;8.534;2023-10-31T12:05:38;11.20;99.90
13944;DHT22;7044;53.286;8.534;2023-10-31T12:08:05;11.10;99.90
13944;DHT22;7044;53.286;8.534;2023-10-31T12:10:32;11.40;99.90
13944;DHT22;7044;53.286;8.534;2023-10-31T12:12:59;11.20;99.90
13944;DHT22;7044;53.286;8.534;2023-10-31T12:15:27;11.90;99.90
13944;DHT22;7044;53.286;8.534;2023-10-31T12:17:57;11.30;99.90
13944;DHT22;7044;53.286;8.534;2023-10-31T12:20:25;10.80;99.90
13944;DHT22;7044;53.286;8.534;2023-10-31T12:23:02;10.60;99.90
13944;DHT22;7044;53.286;8.534;2023-10-31T12:25:29;10.50;99.90
13944;DHT22;7044;53.286;8.534;2023-10-31T12:28:00;10.40;99.90
13944;DHT22;7044;53.286;8.534;2023-10-31T12:30:28;10.50;99.90
13944;DHT22;7044;53.286;8.534;2023-10-31T12:32:56;10.40;99.90
13944;DHT22;7044;53.286;8.534;2023-10-31T12:35:24;10.30;99.90
13944;DHT22;7044;53.286;8.534;2023-10-31T12:37:52;10.30;99.90
13944;DHT22;7044;53.286;8.534;2023-10-31T12:40:20;10.30;99.90
13944;DHT22;7044;53.286;8.534;2023-10-31T12:42:49;10.30;99.90
13944;DHT22;7044;53.286;8.534;2023-10-31T12:45:17;10.30;99.90
13944;DHT22;7044;53.286;8.534;2023-10-31T12:48:00;10.30;99.90
13944;DHT22;7044;53.286;8.534;2023-10-31T12:50:28;10.20;99.90
13944;DHT22;7044;53.286;8.534;2023-10-31T12:52:55;10.20;99.90
13944;DHT22;7044;53.286;8.534;2023-10-31T12:55:23;10.10;99.90
13944;DHT22;7044;53.286;8.534;2023-10-31T12:57:51;10.10;99.90
13944;DHT22;7044;53.286;8.534;2023-10-31T13:00:20;10.00;99.90
13944;DHT22;7044;53.286;8.534;2023-10-31T13:02:59;10.00;99.90
13944;DHT22;7044;53.286;8.534;2023-10-31T13:05:27;10.10;99.90
13944;DHT22;7044;53.286;8.534;2023-10-31T13:07:55;9.90;99.90
13944;DHT22;7044;53.286;8.534;2023-10-31T13:10:23;10.00;99.90
13944;DHT22;7044;53.286;8.534;2023-10-31T13:12:51;10.00;99.90
13944;DHT22;7044;53.286;8.534;2023-10-31T13:15:19;10.00;99.90
13944;DHT22;7044;53.286;8.534;2023-10-31T13:17:48;10.00;99.90
13944;DHT22;7044;53.286;8.534;2023-10-31T13:20:19;10.40;99.90
13944;DHT22;7044;53.286;8.534;2023-10-31T13:22:47;10.70;99.90
13944;DHT22;7044;53.286;8.534;2023-10-31T13:25:15;10.00;99.90
13944;DHT22;7044;53.286;8.534;2023-10-31T13:27:44;10.70;99.90
13944;DHT22;7044;53.286;8.534;2023-10-31T13:30:16;9.80;99.90
13944;DHT22;7044;53.286;8.534;2023-10-31T13:32:44;10.20;99.90
13944;DHT22;7044;53.286;8.534;2023-10-31T13:35:11;10.20;99.90
13944;DHT22;7044;53.286;8.534;2023-10-31T13:37:41;10.00;99.90
13944;DHT22;7044;53.286;8.534;2023-10-31T13:40:08;10.00;99.90
13944;DHT22;7044;53.286;8.534;2023-10-31T13:42:35;10.00;99.90
13944;DHT22;7044;53.286;8.534;2023-10-31T13:45:03;9.70;99.90
13944;DHT22;7044;53.286;8.534;2023-10-31T13:47:30;9.90;99.90
13944;DHT22;7044;53.286;8.534;2023-10-31T13:52:24;9.90;99.90
13944;DHT22;7044;53.286;8.534;2023-10-31T13:54:52;9.80;99.90
13944;DHT22;7044;53.286;8.534;2023-10-31T13:57:19;9.90;99.90
13944;DHT22;7044;53.286;8.534;2023-10-31T13:59:46;9.90;99.90
13944;DHT22;7044;53.286;8.534;2023-10-31T14:02:12;9.90;99.90
13944;DHT22;7044;53.286;8.534;2023-10-31T14:04:39;9.90;99.90
13944;DHT22;7044;53.286;8.534;2023-10-31T14:07:07;9.90;99.90
13944;DHT22;7044;53.286;8.534;2023-10-31T14:09:34;9.90;99.90
13944;DHT22;7044;53.286;8.534;2023-10-31T14:12:03;9.90;99.90
13944;DHT22;7044;53.286;8.534;2023-10-31T14:14:30;9.80;99.90
13944;DHT22;7044;53.286;8.534;2023-10-31T14:16:57;9.90;99.90
13944;DHT22;7044;53.286;8.534;2023-10-31T14:19:24;10.90;99.90
13944;DHT22;7044;53.286;8.534;2023-10-31T14:21:50;10.20;99.90
13944;DHT22;7044;53.286;8.534;2023-10-31T14:24:18;9.70;99.90
13944;DHT22;7044;53.286;8.534;2023-10-31T14:26:44;9.70;99.90
13944;DHT22;7044;53.286;8.534;2023-10-31T14:29:13;9.60;99.90
13944;DHT22;7044;53.286;8.534;2023-10-31T14:31:40;9.70;99.90
13944;DHT22;7044;53.286;8.534;2023-10-31T14:34:08;9.80;99.90
13944;DHT22;7044;53.286;8.534;2023-10-31T14:36:35;9.60;99.90
13944;DHT22;7044;53.286;8.534;2023-10-31T14:39:02;10.00;99.90
13944;DHT22;7044;53.286;8.534;2023-10-31T14:41:30;9.90;99.90
13944;DHT22;7044;53.286;8.534;2023-10-31T14:43:59;9.90;99.90
13944;DHT22;7044;53.286;8.534;2023-10-31T14:46:27;9.90;99.90
13944;DHT22;7044;53.286;8.534;2023-10-31T14:48:54;10.00;99.90
13944;DHT22;7044;53.286;8.534;2023-10-31T14:51:21;9.90;99.90
13944;DHT22;7044;53.286;8.534;2023-10-31T14:53:48;9.90;99.90
13944;DHT22;7044;53.286;8.534;2023-10-31T14:56:15;9.90;99.90
13944;DHT22;7044;53.286;8.534;2023-10-31T14:58:42;9.80;99.90
13944;DHT22;7044;53.286;8.534;2023-10-31T15:01:08;9.60;99.90
13944;DHT22;7044;53.286;8.534;2023-10-31T15:03:37;9.60;99.90
13944;DHT22;7044;53.286;8.534;2023-10-31T15:06:06;9.60;99.90
13944;DHT22;7044;53.286;8.534;2023-10-31T15:08:33;9.60;99.90
13944;DHT22;7044;53.286;8.534;2023-10-31T15:11:00;9.60;99.90
13944;DHT22;7044;53.286;8.534;2023-10-31T15:13:27;9.60;99.90
13944;DHT22;7044;53.286;8.534;2023-10-31T15:15:53;9.60;99.90
13944;DHT22;7044;53.286;8.534;2023-10-31T15:18:20;9.50;99.90
13944;DHT22;7044;53.286;8.534;2023-10-31T15:20:48;10.30;99.90
13944;DHT22;7044;53.286;8.534;2023-10-31T15:23:16;9.50;99.90
13944;DHT22;7044;53.286;8.534;2023-10-31T15:25:42;9.40;99.90
13944;DHT22;7044;53.286;8.534;2023-10-31T15:28:09;9.40;99.90
13944;DHT22;7044;53.286;8.534;2023-10-31T15:30:36;9.40;99.90
13944;DHT22;7044;53.286;8.534;2023-10-31T15:33:03;9.80;99.90
13944;DHT22;7044;53.286;8.534;2023-10-31T15:35:30;9.40;99.90
13944;DHT22;7044;53.286;8.534;2023-10-31T15:37:58;9.40;99.90
13944;DHT22;7044;53.286;8.534;2023-10-31T15:40:25;9.40;99.90
13944;DHT22;7044;53.286;8.534;2023-10-31T15:42:54;9.40;99.90
13944;DHT22;7044;53.286;8.534;2023-10-31T15:45:21;9.50;99.90
13944;DHT22;7044;53.286;8.534;2023-10-31T15:47:47;9.50;99.90
13944;DHT22;7044;53.286;8.534;2023-10-31T15:50:14;9.50;99.90
13944;DHT22;7044;53.286;8.534;2023-10-31T15:52:41;9.50;99.90
13944;DHT22;7044;53.286;8.534;2023-10-31T15:55:09;9.50;99.90
13944;DHT22;7044;53.286;8.534;2023-10-31T15:57:36;9.50;99.90
13944;DHT22;7044;53.286;8.534;2023-10-31T16:00:04;9.50;99.90
13944;DHT22;7044;53.286;8.534;2023-10-31T16:02:31;9.40;99.90
13944;DHT22;7044;53.286;8.534;2023-10-31T16:04:58;9.50;99.90
13944;DHT22;7044;53.286;8.534;2023-10-31T16:07:25;9.50;99.90
13944;DHT22;7044;53.286;8.534;2023-10-31T16:09:52;9.70;99.90